Terminal Aerodrome Forecast
Issued by NWS Grand Forks, ND

Home | Current Version | Previous Version | Text Only | Print | Product List | Glossary Off
Versions: 1 2 3 4 5 6 7 8 9 10 11 12 13 14 15

000
FTUS43 KFGF 200056 AAA
TAFGFK
TAF AMD
KGFK 200056Z 2001/2024 17012KT P6SM FEW250
     FM200400 20012KT P6SM SCT250
     FM200500 25007KT P6SM SCT250
     FM200800 31007KT P6SM FEW250=

USA.gov is the U.S. government's official web portal to all federal, state and local government web resources and services.